createdAt,value
2023-05-19T00:00:56.912Z,95436.00
2023-05-19T00:01:57.003Z,95434.00
2023-05-19T00:02:57.097Z,95434.00
2023-05-19T00:03:57.073Z,95434.00
2023-05-19T00:04:57.120Z,95434.00
2023-05-19T00:05:57.213Z,95432.00
2023-05-19T00:06:57.199Z,95434.00
2023-05-19T00:07:57.261Z,95430.00
2023-05-19T00:08:57.282Z,95436.00
2023-05-19T00:09:57.311Z,95438.00
2023-05-19T00:10:57.338Z,95436.00
2023-05-19T00:11:57.393Z,95438.00
2023-05-19T00:12:57.365Z,95438.00
2023-05-19T00:13:57.360Z,95440.00
2023-05-19T00:14:57.389Z,95438.00
2023-05-19T00:15:57.442Z,95440.00
2023-05-19T00:16:57.405Z,95440.00
2023-05-19T00:17:57.450Z,95440.00
2023-05-19T00:18:57.499Z,95440.00
2023-05-19T00:19:57.465Z,95440.00
2023-05-19T00:20:57.432Z,95440.00
2023-05-19T00:21:57.425Z,95440.00
2023-05-19T00:22:57.432Z,95438.00
2023-05-19T00:23:57.442Z,95436.00
2023-05-19T00:24:57.445Z,95438.00
2023-05-19T00:25:57.454Z,95436.00
2023-05-19T00:26:57.446Z,95436.00
2023-05-19T00:27:57.477Z,95436.00
2023-05-19T00:28:57.449Z,95434.00
2023-05-19T00:29:57.498Z,95436.00
2023-05-19T00:30:57.467Z,95434.00
2023-05-19T00:31:57.500Z,95434.00
2023-05-19T00:32:57.497Z,95434.00
2023-05-19T00:33:57.469Z,95434.00
2023-05-19T00:34:57.464Z,95434.00
2023-05-19T00:35:57.467Z,95434.00
2023-05-19T00:36:57.464Z,95434.00
2023-05-19T00:37:57.464Z,95436.00
2023-05-19T00:38:57.463Z,95436.00
2023-05-19T00:39:57.469Z,95436.00
2023-05-19T00:40:57.492Z,95438.00
2023-05-19T00:41:57.474Z,95438.00
2023-05-19T00:42:57.485Z,95438.00
2023-05-19T00:43:57.499Z,95438.00
2023-05-19T00:44:57.490Z,95438.00
2023-05-19T00:45:57.495Z,95440.00
2023-05-19T00:46:57.634Z,95440.00
2023-05-19T00:47:57.525Z,95440.00
2023-05-19T00:48:57.510Z,95440.00
2023-05-19T00:49:57.511Z,95440.00
2023-05-19T00:50:57.521Z,95438.00
2023-05-19T00:51:57.532Z,95436.00
2023-05-19T00:52:57.526Z,95436.00
2023-05-19T00:53:57.531Z,95436.00
2023-05-19T00:54:57.530Z,95434.00
2023-05-19T00:55:57.563Z,95434.00
2023-05-19T00:56:57.554Z,95432.00
2023-05-19T00:57:57.551Z,95428.00
2023-05-19T00:58:57.534Z,95432.00
2023-05-19T00:59:57.593Z,95430.00
2023-05-19T01:00:57.569Z,95428.00
2023-05-19T01:01:57.558Z,95426.00
2023-05-19T01:02:57.631Z,95428.00
2023-05-19T01:03:57.612Z,95422.00
2023-05-19T01:04:57.564Z,95424.00
2023-05-19T01:05:57.583Z,95426.00
2023-05-19T01:06:57.544Z,95424.00
2023-05-19T01:07:57.542Z,95424.00
2023-05-19T01:08:57.540Z,95424.00
2023-05-19T01:09:57.549Z,95424.00
2023-05-19T01:10:57.546Z,95426.00
2023-05-19T01:11:57.562Z,95426.00
2023-05-19T01:12:57.548Z,95426.00
2023-05-19T01:13:57.545Z,95424.00
2023-05-19T01:14:57.560Z,95424.00
2023-05-19T01:15:57.611Z,95422.00
2023-05-19T01:16:57.606Z,95420.00
2023-05-19T01:17:57.580Z,95422.00
2023-05-19T01:18:57.625Z,95422.00
2023-05-19T01:19:57.596Z,95424.00
2023-05-19T01:20:57.581Z,95422.00
2023-05-19T01:21:57.576Z,95422.00
2023-05-19T01:22:57.582Z,95422.00
2023-05-19T01:23:57.587Z,95422.00
2023-05-19T01:24:57.587Z,95422.00
2023-05-19T01:25:57.590Z,95422.00
2023-05-19T01:26:57.605Z,95422.00
2023-05-19T01:27:57.607Z,95420.00
2023-05-19T01:28:57.607Z,95420.00
2023-05-19T01:29:57.615Z,95418.00
2023-05-19T01:30:57.610Z,95420.00
2023-05-19T01:31:57.659Z,95420.00
2023-05-19T01:32:57.689Z,95420.00
2023-05-19T01:33:57.623Z,95418.00
2023-05-19T01:34:57.622Z,95418.00
2023-05-19T01:35:57.621Z,95418.00
2023-05-19T01:36:57.644Z,95418.00
2023-05-19T01:37:57.642Z,95420.00
2023-05-19T01:38:57.632Z,95422.00
2023-05-19T01:39:57.637Z,95422.00
2023-05-19T01:40:57.639Z,95422.00
2023-05-19T01:41:57.637Z,95424.00
2023-05-19T01:42:57.928Z,95420.00
2023-05-19T01:43:57.644Z,95422.00
2023-05-19T01:44:57.638Z,95420.00
2023-05-19T01:45:57.682Z,95420.00
2023-05-19T01:46:57.654Z,95417.00
2023-05-19T01:47:57.727Z,95420.00
2023-05-19T01:48:57.644Z,95422.00
2023-05-19T01:49:57.648Z,95422.00
2023-05-19T01:50:57.644Z,95420.00
2023-05-19T01:51:57.642Z,95424.00
2023-05-19T01:52:57.646Z,95424.00
2023-05-19T01:53:57.661Z,95422.00
2023-05-19T01:54:57.671Z,95426.00
2023-05-19T01:55:57.687Z,95426.00
2023-05-19T01:56:57.666Z,95426.00
2023-05-19T01:57:57.669Z,95426.00
2023-05-19T01:58:57.665Z,95426.00
2023-05-19T01:59:57.667Z,95428.00
2023-05-19T02:00:57.713Z,95428.00
2023-05-19T02:01:57.680Z,95428.00
2023-05-19T02:02:57.728Z,95428.00
2023-05-19T02:03:57.737Z,95428.00
2023-05-19T02:04:57.704Z,95428.00
2023-05-19T02:05:57.692Z,95430.00
2023-05-19T02:06:57.699Z,95428.00
2023-05-19T02:07:57.695Z,95428.00
2023-05-19T02:08:57.703Z,95430.00
2023-05-19T02:09:57.698Z,95430.00
2023-05-19T02:10:57.697Z,95428.00
2023-05-19T02:11:57.699Z,95432.00
2023-05-19T02:12:57.705Z,95430.00
2023-05-19T02:13:57.691Z,95430.00
2023-05-19T02:14:57.689Z,95428.00
2023-05-19T02:15:57.771Z,95428.00
2023-05-19T02:16:57.693Z,95430.00
2023-05-19T02:17:57.721Z,95432.00
2023-05-19T02:18:57.712Z,95432.00
2023-05-19T02:19:57.711Z,95430.00
2023-05-19T02:20:57.713Z,95430.00
2023-05-19T02:21:57.679Z,95434.00
2023-05-19T02:22:57.682Z,95432.00
2023-05-19T02:23:57.678Z,95434.00
2023-05-19T02:24:57.681Z,95432.00
2023-05-19T02:25:57.679Z,95430.00
2023-05-19T02:26:57.682Z,95430.00
2023-05-19T02:27:57.684Z,95430.00
2023-05-19T02:28:57.672Z,95430.00
2023-05-19T02:29:57.688Z,95430.00
2023-05-19T02:30:57.687Z,95430.00
2023-05-19T02:31:57.741Z,95428.00
2023-05-19T02:32:57.713Z,95428.00
2023-05-19T02:33:57.687Z,95428.00
2023-05-19T02:34:57.697Z,95428.00
2023-05-19T02:35:57.730Z,95428.00
2023-05-19T02:36:57.714Z,95428.00
2023-05-19T02:37:57.722Z,95426.00
2023-05-19T02:38:57.699Z,95428.00
2023-05-19T02:39:57.699Z,95426.00
2023-05-19T02:40:57.726Z,95426.00
2023-05-19T02:41:57.685Z,95424.00
2023-05-19T02:42:57.697Z,95422.00
2023-05-19T02:43:57.696Z,95422.00
2023-05-19T02:44:57.704Z,95424.00
2023-05-19T02:45:57.748Z,95424.00
2023-05-19T02:46:57.704Z,95422.00
2023-05-19T02:47:57.747Z,95422.00
2023-05-19T02:48:57.739Z,95424.00
2023-05-19T02:49:57.716Z,95422.00
2023-05-19T02:50:57.708Z,95424.00
2023-05-19T02:51:57.740Z,95424.00
2023-05-19T02:52:57.713Z,95422.00
2023-05-19T02:53:57.714Z,95422.00
2023-05-19T02:54:57.708Z,95424.00
2023-05-19T02:55:57.735Z,95426.00
2023-05-19T02:56:57.714Z,95426.00
2023-05-19T02:57:57.732Z,95424.00
2023-05-19T02:58:57.720Z,95420.00
2023-05-19T02:59:57.718Z,95422.00
2023-05-19T03:00:57.741Z,95422.00
2023-05-19T03:01:57.764Z,95420.00
2023-05-19T03:02:57.810Z,95422.00
2023-05-19T03:03:57.753Z,95420.00
2023-05-19T03:04:57.726Z,95417.00
2023-05-19T03:05:57.723Z,95417.00
2023-05-19T03:06:57.785Z,95417.00
2023-05-19T03:07:57.869Z,95417.00
2023-05-19T03:08:57.732Z,95417.00
2023-05-19T03:09:57.728Z,95418.00
2023-05-19T03:10:57.762Z,95418.00
2023-05-19T03:11:57.741Z,95417.00
2023-05-19T03:12:57.723Z,95415.00
2023-05-19T03:13:57.740Z,95417.00
2023-05-19T03:14:57.737Z,95415.00
2023-05-19T03:15:57.846Z,95413.00
2023-05-19T03:16:57.879Z,95417.00
2023-05-19T03:17:57.846Z,95413.00
2023-05-19T03:18:57.770Z,95411.00
2023-05-19T03:19:57.769Z,95411.00
2023-05-19T03:20:57.774Z,95415.00
2023-05-19T03:21:57.765Z,95413.00
2023-05-19T03:22:57.792Z,95413.00
2023-05-19T03:23:57.822Z,95415.00
2023-05-19T03:24:57.772Z,95415.00
2023-05-19T03:25:57.769Z,95417.00
2023-05-19T03:26:57.785Z,95417.00
2023-05-19T03:27:57.850Z,95417.00
2023-05-19T03:28:57.784Z,95417.00
2023-05-19T03:29:57.784Z,95417.00
2023-05-19T03:30:57.785Z,95415.00
2023-05-19T03:31:57.790Z,95417.00
2023-05-19T03:32:57.856Z,95417.00
2023-05-19T03:33:57.833Z,95418.00
2023-05-19T03:34:57.802Z,95417.00
2023-05-19T03:35:57.819Z,95417.00
2023-05-19T03:36:57.826Z,95418.00
2023-05-19T03:37:57.804Z,95417.00
2023-05-19T03:38:57.806Z,95420.00
2023-05-19T03:39:57.852Z,95418.00
2023-05-19T03:40:57.815Z,95417.00
2023-05-19T03:41:57.818Z,95417.00
2023-05-19T03:42:57.813Z,95417.00
2023-05-19T03:43:58.532Z,95415.00
2023-05-19T03:44:57.843Z,95417.00
2023-05-19T03:45:57.913Z,95417.00
2023-05-19T03:46:57.832Z,95415.00
2023-05-19T03:47:57.863Z,95418.00
2023-05-19T03:48:57.845Z,95418.00
2023-05-19T03:49:57.822Z,95420.00
2023-05-19T03:50:57.823Z,95422.00
2023-05-19T03:51:57.818Z,95420.00
2023-05-19T03:52:57.831Z,95420.00
2023-05-19T03:53:57.819Z,95420.00
2023-05-19T03:54:57.821Z,95420.00
2023-05-19T03:55:57.862Z,95420.00
2023-05-19T03:56:57.825Z,95422.00
2023-05-19T03:57:57.831Z,95424.00
2023-05-19T03:58:57.829Z,95424.00
2023-05-19T03:59:57.816Z,95424.00
2023-05-19T04:00:57.813Z,95422.00
2023-05-19T04:01:57.936Z,95422.00
2023-05-19T04:02:57.927Z,95422.00
2023-05-19T04:03:57.863Z,95420.00
2023-05-19T04:04:57.949Z,95420.00
2023-05-19T04:05:57.829Z,95420.00
2023-05-19T04:06:57.836Z,95420.00
2023-05-19T04:07:57.843Z,95418.00
2023-05-19T04:08:57.837Z,95417.00
2023-05-19T04:09:57.826Z,95418.00
2023-05-19T04:10:57.827Z,95418.00
2023-05-19T04:11:57.849Z,95417.00
2023-05-19T04:12:57.814Z,95418.00
2023-05-19T04:13:57.808Z,95418.00
2023-05-19T04:14:57.827Z,95417.00
2023-05-19T04:15:57.832Z,95418.00
2023-05-19T04:16:57.830Z,95417.00
2023-05-19T04:17:58.652Z,95418.00
2023-05-19T04:18:57.844Z,95413.00
2023-05-19T04:19:57.803Z,95415.00
2023-05-19T04:20:57.801Z,95415.00
2023-05-19T04:21:57.822Z,95417.00
2023-05-19T04:22:57.798Z,95415.00
2023-05-19T04:23:57.808Z,95417.00
2023-05-19T04:24:57.809Z,95417.00
2023-05-19T04:25:57.799Z,95418.00
2023-05-19T04:26:57.800Z,95418.00
2023-05-19T04:27:57.952Z,95420.00
2023-05-19T04:28:57.796Z,95420.00
2023-05-19T04:29:57.801Z,95420.00
2023-05-19T04:30:57.877Z,95422.00
2023-05-19T04:31:57.807Z,95422.00
2023-05-19T04:32:57.837Z,95422.00
2023-05-19T04:33:57.800Z,95422.00
2023-05-19T04:34:57.796Z,95424.00
2023-05-19T04:35:57.795Z,95422.00
2023-05-19T04:36:57.809Z,95420.00
2023-05-19T04:37:57.803Z,95420.00
2023-05-19T04:38:57.805Z,95426.00
2023-05-19T04:39:57.802Z,95424.00
2023-05-19T04:40:57.812Z,95426.00
2023-05-19T04:41:57.800Z,95424.00
2023-05-19T04:42:57.806Z,95426.00
2023-05-19T04:43:57.932Z,95428.00
2023-05-19T04:44:57.808Z,95430.00
2023-05-19T04:45:57.818Z,95430.00
2023-05-19T04:46:57.897Z,95430.00
2023-05-19T04:47:57.891Z,95430.00
2023-05-19T04:48:57.807Z,95430.00
2023-05-19T04:49:57.798Z,95432.00
2023-05-19T04:50:57.803Z,95432.00
2023-05-19T04:51:57.790Z,95434.00
2023-05-19T04:52:57.796Z,95430.00
2023-05-19T04:53:57.816Z,95430.00
2023-05-19T04:54:57.798Z,95428.00
2023-05-19T04:55:57.797Z,95428.00
2023-05-19T04:56:57.784Z,95428.00
2023-05-19T04:57:57.784Z,95428.00
2023-05-19T04:58:57.778Z,95428.00
2023-05-19T04:59:57.823Z,95430.00
2023-05-19T05:00:57.772Z,95428.00
2023-05-19T05:01:57.894Z,95428.00
2023-05-19T05:02:58.056Z,95428.00
2023-05-19T05:03:57.806Z,95424.00
2023-05-19T05:04:57.775Z,95422.00
2023-05-19T05:05:57.762Z,95424.00
2023-05-19T05:06:57.759Z,95422.00
2023-05-19T05:07:57.756Z,95424.00
2023-05-19T05:08:57.749Z,95426.00
2023-05-19T05:09:57.745Z,95426.00
2023-05-19T05:10:57.766Z,95424.00
2023-05-19T05:11:57.743Z,95426.00
2023-05-19T05:12:57.745Z,95426.00
2023-05-19T05:13:57.731Z,95426.00
2023-05-19T05:14:57.731Z,95422.00
2023-05-19T05:15:57.805Z,95424.00
2023-05-19T05:16:57.721Z,95424.00
2023-05-19T05:17:57.841Z,95420.00
2023-05-19T05:18:57.772Z,95420.00
2023-05-19T05:19:57.711Z,95418.00
2023-05-19T05:20:57.718Z,95420.00
2023-05-19T05:21:57.720Z,95418.00
2023-05-19T05:22:57.716Z,95415.00
2023-05-19T05:23:57.686Z,95411.00
2023-05-19T05:24:57.691Z,95403.00
2023-05-19T05:25:57.700Z,95403.00
2023-05-19T05:26:57.703Z,95401.00
2023-05-19T05:27:57.720Z,95401.00
2023-05-19T05:28:57.716Z,95403.00
2023-05-19T05:29:59.286Z,95403.00
2023-05-19T05:30:57.896Z,95399.00
2023-05-19T05:31:57.980Z,95401.00
2023-05-19T05:32:57.988Z,95399.00
2023-05-19T05:33:57.918Z,95399.00
2023-05-19T05:34:57.915Z,95397.00
2023-05-19T05:35:57.903Z,95399.00
2023-05-19T05:36:57.916Z,95395.00
2023-05-19T05:37:57.906Z,95397.00
2023-05-19T05:38:57.917Z,95397.00
2023-05-19T05:39:57.932Z,95399.00
2023-05-19T05:40:57.900Z,95397.00
2023-05-19T05:41:57.906Z,95397.00
2023-05-19T05:42:57.897Z,95397.00
2023-05-19T05:43:57.888Z,95397.00
2023-05-19T05:44:57.886Z,95395.00
2023-05-19T05:45:57.963Z,95395.00
2023-05-19T05:46:57.882Z,95395.00
2023-05-19T05:47:57.953Z,95395.00
2023-05-19T05:48:57.883Z,95395.00
2023-05-19T05:49:57.901Z,95401.00
2023-05-19T05:50:57.948Z,95397.00
2023-05-19T05:52:05.537Z,95399.00
2023-05-19T05:52:57.943Z,95397.00
2023-05-19T05:53:57.914Z,95397.00
2023-05-19T05:54:57.914Z,95397.00
2023-05-19T05:55:57.932Z,95393.00
2023-05-19T05:56:57.897Z,95397.00
2023-05-19T05:57:57.909Z,95397.00
2023-05-19T05:58:57.900Z,95399.00
2023-05-19T05:59:57.908Z,95401.00
2023-05-19T06:00:57.871Z,95401.00
2023-05-19T06:01:57.926Z,95401.00
2023-05-19T06:02:57.861Z,95399.00
2023-05-19T06:03:57.885Z,95397.00
2023-05-19T06:04:57.866Z,95397.00
2023-05-19T06:05:57.938Z,95397.00
2023-05-19T06:06:57.819Z,95397.00
2023-05-19T06:07:57.841Z,95399.00
2023-05-19T06:08:57.832Z,95399.00
2023-05-19T06:09:57.812Z,95397.00
2023-05-19T06:10:57.817Z,95397.00
2023-05-19T06:11:57.789Z,95397.00
2023-05-19T06:12:57.773Z,95397.00
2023-05-19T06:13:57.780Z,95395.00
2023-05-19T06:14:57.769Z,95395.00
2023-05-19T06:15:58.789Z,95393.00
2023-05-19T06:16:57.734Z,95395.00
2023-05-19T06:17:57.793Z,95393.00
2023-05-19T06:18:57.801Z,95393.00
2023-05-19T06:19:57.756Z,95393.00
2023-05-19T06:20:57.731Z,95393.00
2023-05-19T06:21:57.714Z,95395.00
2023-05-19T06:22:57.698Z,95397.00
2023-05-19T06:23:57.693Z,95395.00
2023-05-19T06:24:57.681Z,95393.00
2023-05-19T06:25:57.681Z,95395.00
2023-05-19T06:26:57.663Z,95393.00
2023-05-19T06:27:57.654Z,95393.00
2023-05-19T06:28:57.659Z,95393.00
2023-05-19T06:29:57.645Z,95395.00
2023-05-19T06:30:57.666Z,95395.00
2023-05-19T06:31:57.646Z,95401.00
2023-05-19T06:32:57.640Z,95401.00
2023-05-19T06:33:57.614Z,95401.00
2023-05-19T06:34:57.603Z,95403.00
2023-05-19T06:35:57.621Z,95411.00
2023-05-19T06:36:57.595Z,95401.00
2023-05-19T06:37:57.582Z,95413.00
2023-05-19T06:38:57.572Z,95413.00
2023-05-19T06:39:57.564Z,95413.00
2023-05-19T06:40:57.559Z,95411.00
2023-05-19T06:41:57.566Z,95413.00
2023-05-19T06:42:57.554Z,95415.00
2023-05-19T06:43:57.536Z,95417.00
2023-05-19T06:44:57.536Z,95413.00
2023-05-19T06:45:57.536Z,95411.00
2023-05-19T06:46:57.547Z,95403.00
2023-05-19T06:47:57.542Z,95403.00
2023-05-19T06:48:57.521Z,95399.00
2023-05-19T06:49:57.571Z,95401.00
2023-05-19T06:50:57.617Z,95401.00
2023-05-19T06:51:57.695Z,95401.00
2023-05-19T06:52:57.715Z,95411.00
2023-05-19T06:53:57.756Z,95403.00
2023-05-19T06:54:57.807Z,95403.00
2023-05-19T06:55:59.463Z,95401.00
2023-05-19T06:56:57.833Z,95399.00
2023-05-19T06:57:57.821Z,95399.00
2023-05-19T06:58:57.811Z,95397.00
2023-05-19T06:59:57.809Z,95397.00
2023-05-19T07:00:57.799Z,95397.00
2023-05-19T07:01:57.817Z,95397.00
2023-05-19T07:02:57.864Z,95397.00
2023-05-19T07:03:57.894Z,95397.00
2023-05-19T07:04:57.755Z,95395.00
2023-05-19T07:05:57.751Z,95393.00
2023-05-19T07:06:57.742Z,95393.00
2023-05-19T07:07:57.771Z,95395.00
2023-05-19T07:08:57.730Z,95397.00
2023-05-19T07:09:57.721Z,95399.00
2023-05-19T07:10:57.708Z,95399.00
2023-05-19T07:11:57.704Z,95401.00
2023-05-19T07:12:57.698Z,95403.00
2023-05-19T07:13:57.689Z,95403.00
2023-05-19T07:14:57.695Z,95403.00
2023-05-19T07:15:57.712Z,95399.00
2023-05-19T07:16:57.661Z,95397.00
2023-05-19T07:17:57.687Z,95393.00
2023-05-19T07:18:57.716Z,95395.00
2023-05-19T07:19:57.641Z,95393.00
2023-05-19T07:20:57.640Z,95395.00
2023-05-19T07:21:57.629Z,95393.00
2023-05-19T07:22:57.619Z,95395.00
2023-05-19T07:23:57.641Z,95393.00
2023-05-19T07:24:57.611Z,95393.00
2023-05-19T07:25:57.642Z,95391.00
2023-05-19T07:26:57.707Z,95389.00
2023-05-19T07:27:57.762Z,95389.00
2023-05-19T07:28:57.817Z,95387.00
2023-05-19T07:29:57.865Z,95387.00
2023-05-19T07:30:57.932Z,95387.00
2023-05-19T07:31:58.231Z,95385.00
2023-05-19T07:32:58.026Z,95383.00
2023-05-19T07:33:58.095Z,95383.00
2023-05-19T07:34:58.145Z,95383.00
2023-05-19T07:35:58.196Z,95379.00
2023-05-19T07:36:58.261Z,95377.00
2023-05-19T07:37:58.330Z,95375.00
2023-05-19T07:38:58.402Z,95373.00
2023-05-19T07:39:58.462Z,95373.00
2023-05-19T07:40:58.468Z,95371.00
2023-05-19T07:41:58.528Z,95375.00
2023-05-19T07:42:58.583Z,95371.00
2023-05-19T07:43:58.653Z,95369.00
2023-05-19T07:44:58.715Z,95369.00
2023-05-19T07:45:58.825Z,95367.00
2023-05-19T07:46:58.834Z,95365.00
2023-05-19T07:47:58.914Z,95364.00
2023-05-19T07:48:58.987Z,95362.00
2023-05-19T07:49:59.009Z,95360.00
2023-05-19T07:50:59.069Z,95362.00
2023-05-19T07:51:59.136Z,95358.00
2023-05-19T07:52:59.195Z,95356.00
2023-05-19T07:53:59.243Z,95354.00
2023-05-19T07:54:59.300Z,95352.00
2023-05-19T07:55:59.394Z,95348.00
2023-05-19T07:56:59.412Z,95346.00
2023-05-19T07:57:59.483Z,95346.00
2023-05-19T07:58:59.582Z,95342.00
2023-05-19T07:59:59.598Z,95342.00
2023-05-19T08:00:59.647Z,95342.00
2023-05-19T08:01:59.739Z,95342.00
2023-05-19T08:02:59.867Z,95340.00
2023-05-19T08:03:59.853Z,95344.00
2023-05-19T08:04:59.877Z,95340.00
2023-05-19T08:05:59.937Z,95340.00
2023-05-19T08:07:00.003Z,95340.00
2023-05-19T08:08:00.046Z,95334.00
2023-05-19T08:09:00.106Z,95336.00
2023-05-19T08:10:00.519Z,95336.00
2023-05-19T08:11:00.563Z,95334.00
2023-05-19T08:12:00.761Z,95334.00
2023-05-19T08:13:00.563Z,95332.00
2023-05-19T08:14:00.583Z,95332.00
2023-05-19T08:15:01.630Z,95334.00
2023-05-19T08:16:00.729Z,95330.00
2023-05-19T08:17:00.599Z,95330.00
2023-05-19T08:18:00.735Z,95328.00
2023-05-19T08:19:00.771Z,95328.00
2023-05-19T08:20:00.759Z,95326.00
2023-05-19T08:21:00.817Z,95324.00
2023-05-19T08:22:00.892Z,95322.00
2023-05-19T08:23:00.927Z,95322.00
2023-05-19T08:24:00.992Z,95320.00
2023-05-19T08:25:01.044Z,95320.00
2023-05-19T08:26:01.083Z,95318.00
2023-05-19T08:27:01.501Z,95317.00
2023-05-19T08:28:01.600Z,95315.00
2023-05-19T08:29:01.525Z,95317.00
2023-05-19T08:30:01.520Z,95315.00
2023-05-19T08:31:01.685Z,95315.00
2023-05-19T08:32:01.531Z,95315.00
2023-05-19T08:33:01.550Z,95315.00
2023-05-19T08:34:01.527Z,95315.00
2023-05-19T08:35:01.548Z,95317.00
2023-05-19T08:36:01.600Z,95317.00
2023-05-19T08:37:01.681Z,95317.00
2023-05-19T08:38:01.741Z,95315.00
2023-05-19T08:39:01.773Z,95315.00
2023-05-19T08:40:01.829Z,95311.00
2023-05-19T08:41:01.880Z,95309.00
2023-05-19T08:42:01.938Z,95313.00
2023-05-19T08:43:02.005Z,95311.00
2023-05-19T08:44:02.216Z,95307.00
2023-05-19T08:45:02.108Z,95307.00
2023-05-19T08:46:02.166Z,95307.00
2023-05-19T08:47:02.383Z,95303.00
2023-05-19T08:48:02.335Z,95303.00
2023-05-19T08:49:02.350Z,95297.00
2023-05-19T08:50:02.420Z,95301.00
2023-05-19T08:51:02.472Z,95299.00
2023-05-19T08:52:02.549Z,95297.00
2023-05-19T08:53:02.583Z,95295.00
2023-05-19T08:54:02.642Z,95295.00
2023-05-19T08:55:02.704Z,95293.00
2023-05-19T08:56:02.766Z,95295.00
2023-05-19T08:57:02.826Z,95293.00
2023-05-19T08:58:02.888Z,95289.00
2023-05-19T08:59:02.951Z,95289.00
2023-05-19T09:00:03.039Z,95293.00
2023-05-19T09:01:03.055Z,95287.00
2023-05-19T09:02:03.103Z,95289.00
2023-05-19T09:04:02.295Z,95289.00
2023-05-19T09:05:03.335Z,95285.00
2023-05-19T09:06:03.174Z,95285.00
2023-05-19T09:07:03.145Z,95285.00
2023-05-19T09:08:03.153Z,95285.00
2023-05-19T09:09:03.131Z,95285.00
2023-05-19T09:10:03.119Z,95285.00
2023-05-19T09:11:03.101Z,95285.00
2023-05-19T09:12:03.166Z,95285.00
2023-05-19T09:13:03.090Z,95285.00
2023-05-19T09:14:03.089Z,95281.00
2023-05-19T09:15:03.085Z,95283.00
2023-05-19T09:16:03.232Z,95283.00
2023-05-19T09:17:03.104Z,95279.00
2023-05-19T09:18:03.137Z,95281.00
2023-05-19T09:19:03.088Z,95275.00
2023-05-19T09:20:03.034Z,95279.00
2023-05-19T09:21:03.437Z,95277.00
2023-05-19T09:22:03.042Z,95275.00
2023-05-19T09:23:03.014Z,95273.00
2023-05-19T09:24:03.060Z,95271.00
2023-05-19T09:25:03.143Z,95271.00
2023-05-19T09:26:03.172Z,95266.00
2023-05-19T09:27:03.254Z,95266.00
2023-05-19T09:28:03.300Z,95264.00
2023-05-19T09:29:03.351Z,95264.00
2023-05-19T09:30:03.409Z,95260.00
2023-05-19T09:31:03.480Z,95260.00
2023-05-19T09:32:04.237Z,95260.00
2023-05-19T09:33:03.567Z,95260.00
2023-05-19T09:34:03.637Z,95256.00
2023-05-19T09:35:03.692Z,95258.00
2023-05-19T09:36:03.765Z,95260.00
2023-05-19T09:37:03.807Z,95256.00
2023-05-19T09:38:03.858Z,95258.00
2023-05-19T09:39:03.917Z,95258.00
2023-05-19T09:40:03.988Z,95258.00
2023-05-19T09:41:04.055Z,95256.00
2023-05-19T09:42:04.098Z,95256.00
2023-05-19T09:43:04.180Z,95254.00
2023-05-19T09:44:04.219Z,95252.00
2023-05-19T09:45:04.279Z,95252.00
2023-05-19T09:46:04.397Z,95250.00
2023-05-19T09:47:04.409Z,95248.00
2023-05-19T09:48:04.548Z,95248.00
2023-05-19T09:49:04.523Z,95248.00
2023-05-19T09:50:04.576Z,95244.00
2023-05-19T09:51:04.638Z,95244.00
2023-05-19T09:52:04.714Z,95242.00
2023-05-19T09:53:04.757Z,95244.00
2023-05-19T09:54:04.808Z,95238.00
2023-05-19T09:55:04.874Z,95240.00
2023-05-19T09:56:04.922Z,95238.00
2023-05-19T09:57:06.538Z,95230.00
2023-05-19T09:58:04.966Z,95232.00
2023-05-19T09:59:04.977Z,95230.00
2023-05-19T10:00:04.961Z,95230.00
2023-05-19T10:01:05.112Z,95232.00
2023-05-19T10:02:04.945Z,95234.00
2023-05-19T10:03:04.949Z,95236.00
2023-05-19T10:04:05.980Z,95236.00
2023-05-19T10:05:04.966Z,95240.00
2023-05-19T10:06:04.947Z,95242.00
2023-05-19T10:07:04.905Z,95238.00
2023-05-19T10:08:04.897Z,95238.00
2023-05-19T10:09:04.931Z,95236.00
2023-05-19T10:10:04.991Z,95234.00
2023-05-19T10:11:05.054Z,95232.00
2023-05-19T10:12:05.140Z,95230.00
2023-05-19T10:13:05.163Z,95230.00
2023-05-19T10:14:05.218Z,95230.00
2023-05-19T10:15:05.267Z,95228.00
2023-05-19T10:16:05.352Z,95230.00
2023-05-19T10:17:05.513Z,95228.00
2023-05-19T10:18:05.477Z,95228.00
2023-05-19T10:19:05.667Z,95224.00
2023-05-19T10:20:05.551Z,95224.00
2023-05-19T10:21:05.596Z,95224.00
2023-05-19T10:22:05.637Z,95224.00
2023-05-19T10:23:05.694Z,95224.00
2023-05-19T10:24:05.757Z,95223.00
2023-05-19T10:25:05.810Z,95224.00
2023-05-19T10:26:05.862Z,95221.00
2023-05-19T10:27:05.928Z,95223.00
2023-05-19T10:28:05.975Z,95219.00
2023-05-19T10:29:06.049Z,95217.00
2023-05-19T10:30:06.094Z,95215.00
2023-05-19T10:31:06.145Z,95211.00
2023-05-19T10:32:06.273Z,95213.00
2023-05-19T10:33:06.276Z,95213.00
2023-05-19T10:34:06.664Z,95213.00
2023-05-19T10:35:06.698Z,95211.00
2023-05-19T10:36:06.794Z,95211.00
2023-05-19T10:37:06.714Z,95209.00
2023-05-19T10:38:06.704Z,95205.00
2023-05-19T10:39:06.724Z,95205.00
2023-05-19T10:40:06.722Z,95205.00
2023-05-19T10:41:06.707Z,95203.00
2023-05-19T10:42:06.726Z,95203.00
2023-05-19T10:43:06.784Z,95199.00
2023-05-19T10:44:06.824Z,95201.00
2023-05-19T10:45:06.872Z,95203.00
2023-05-19T10:46:06.927Z,95201.00
2023-05-19T10:47:07.046Z,95197.00
2023-05-19T10:48:07.052Z,95199.00
2023-05-19T10:49:07.068Z,95197.00
2023-05-19T10:50:07.128Z,95199.00
2023-05-19T10:51:07.193Z,95197.00
2023-05-19T10:52:07.314Z,95195.00
2023-05-19T10:53:07.618Z,95193.00
2023-05-19T10:54:07.676Z,95191.00
2023-05-19T10:55:07.677Z,95189.00
2023-05-19T10:56:07.733Z,95189.00
2023-05-19T10:57:07.681Z,95189.00
2023-05-19T10:58:07.697Z,95189.00
2023-05-19T10:59:07.662Z,95185.00
2023-05-19T11:00:07.823Z,95185.00
2023-05-19T11:01:07.726Z,95183.00
2023-05-19T11:02:08.068Z,95181.00
2023-05-19T11:03:07.933Z,95179.00
2023-05-19T11:04:07.924Z,95183.00
2023-05-19T11:05:07.830Z,95179.00
2023-05-19T11:06:07.903Z,95177.00
2023-05-19T11:07:07.923Z,95179.00
2023-05-19T11:08:08.086Z,95179.00
2023-05-19T11:09:08.036Z,95179.00
2023-05-19T11:10:08.087Z,95179.00
2023-05-19T11:11:08.111Z,95181.00
2023-05-19T11:12:08.174Z,95179.00
2023-05-19T11:13:08.212Z,95176.00
2023-05-19T11:14:08.243Z,95176.00
2023-05-19T11:15:08.300Z,95174.00
2023-05-19T11:16:08.392Z,95174.00
2023-05-19T11:17:08.431Z,95170.00
2023-05-19T11:18:08.445Z,95174.00
2023-05-19T11:19:08.497Z,95174.00
2023-05-19T11:20:08.524Z,95174.00
2023-05-19T11:21:08.602Z,95176.00
2023-05-19T11:22:08.643Z,95176.00
2023-05-19T11:23:08.755Z,95174.00
2023-05-19T11:24:08.749Z,95174.00
2023-05-19T11:25:08.771Z,95174.00
2023-05-19T11:26:08.818Z,95172.00
2023-05-19T11:27:08.875Z,95170.00
2023-05-19T11:28:08.916Z,95170.00
2023-05-19T11:29:08.952Z,95174.00
2023-05-19T11:30:09.006Z,95168.00
2023-05-19T11:31:09.051Z,95168.00
2023-05-19T11:32:09.144Z,95164.00
2023-05-19T11:33:09.203Z,95162.00
2023-05-19T11:34:09.185Z,95164.00
2023-05-19T11:35:09.222Z,95162.00
2023-05-19T11:36:09.298Z,95162.00
2023-05-19T11:37:09.311Z,95158.00
2023-05-19T11:38:09.364Z,95158.00
2023-05-19T11:39:09.408Z,95158.00
2023-05-19T11:40:09.527Z,95160.00
2023-05-19T11:41:09.507Z,95160.00
2023-05-19T11:42:09.560Z,95156.00
2023-05-19T11:43:09.666Z,95146.00
2023-05-19T11:44:09.657Z,95156.00
2023-05-19T11:45:09.703Z,95142.00
2023-05-19T11:46:09.853Z,95154.00